createdAt,value
2022-09-03T00:00:40.744Z,0.00
2022-09-03T00:01:40.857Z,0.00
2022-09-03T00:02:40.970Z,0.00
2022-09-03T00:03:41.052Z,0.00
2022-09-03T00:04:41.205Z,0.00
2022-09-03T00:05:41.365Z,0.00
2022-09-03T00:06:41.463Z,0.00
2022-09-03T00:07:41.605Z,0.00
2022-09-03T00:08:41.774Z,0.00
2022-09-03T00:09:41.856Z,0.00
2022-09-03T00:10:42.042Z,0.00
2022-09-03T00:11:42.134Z,0.00
2022-09-03T00:12:42.241Z,0.00
2022-09-03T00:13:42.374Z,0.00
2022-09-03T00:14:42.474Z,0.00
2022-09-03T00:15:42.702Z,0.00
2022-09-03T00:16:42.787Z,0.00
2022-09-03T00:17:42.854Z,0.00
2022-09-03T00:18:43.026Z,0.00
2022-09-03T00:19:43.104Z,0.00
2022-09-03T00:20:43.242Z,0.00
2022-09-03T00:21:43.423Z,0.00
2022-09-03T00:22:43.596Z,0.00
2022-09-03T00:23:43.776Z,0.00
2022-09-03T00:24:43.873Z,0.00
2022-09-03T00:25:44.033Z,0.00
2022-09-03T00:26:44.172Z,0.00
2022-09-03T00:27:44.332Z,0.00
2022-09-03T00:28:44.423Z,0.00
2022-09-03T00:29:44.604Z,0.00
2022-09-03T00:30:44.745Z,0.00
2022-09-03T00:31:44.945Z,0.00
2022-09-03T00:32:45.043Z,0.00
2022-09-03T00:33:45.213Z,0.00
2022-09-03T00:34:45.381Z,0.00
2022-09-03T00:35:45.534Z,0.00
2022-09-03T00:36:45.631Z,0.00
2022-09-03T00:37:45.792Z,0.00
2022-09-03T00:38:45.954Z,0.00
2022-09-03T00:39:46.143Z,0.00
2022-09-03T00:40:46.233Z,0.00
2022-09-03T00:41:46.372Z,0.00
2022-09-03T00:42:46.523Z,0.00
2022-09-03T00:43:46.696Z,0.00
2022-09-03T00:44:46.841Z,0.00
2022-09-03T00:45:46.940Z,0.00
2022-09-03T00:46:47.259Z,0.00
2022-09-03T00:47:47.274Z,0.00
2022-09-03T00:48:47.441Z,0.00
2022-09-03T00:49:47.601Z,0.00
2022-09-03T00:50:47.702Z,0.00
2022-09-03T00:51:47.862Z,0.00
2022-09-03T00:52:47.969Z,0.00
2022-09-03T00:53:48.093Z,0.00
2022-09-03T00:54:48.244Z,0.00
2022-09-03T00:55:48.391Z,0.00
2022-09-03T00:56:48.474Z,0.00
2022-09-03T00:57:48.594Z,0.00
2022-09-03T00:58:48.691Z,0.00
2022-09-03T00:59:48.783Z,0.00
2022-09-03T01:00:48.943Z,0.00
2022-09-03T01:01:49.158Z,0.00
2022-09-03T01:02:49.297Z,0.00
2022-09-03T01:03:49.352Z,0.00
2022-09-03T01:04:49.530Z,0.00
2022-09-03T01:05:49.686Z,0.00
2022-09-03T01:06:49.792Z,0.00
2022-09-03T01:07:49.940Z,0.00
2022-09-03T01:08:50.082Z,0.00
2022-09-03T01:09:50.191Z,0.00
2022-09-03T01:10:50.364Z,0.00
2022-09-03T01:11:50.472Z,0.00
2022-09-03T01:12:50.603Z,0.00
2022-09-03T01:13:50.759Z,0.00
2022-09-03T01:14:50.933Z,0.00
2022-09-03T01:15:51.146Z,0.00
2022-09-03T01:16:51.191Z,0.00
2022-09-03T01:17:51.276Z,0.00
2022-09-03T01:18:51.431Z,0.00
2022-09-03T01:19:51.568Z,0.00
2022-09-03T01:20:51.732Z,0.00
2022-09-03T01:21:51.812Z,0.00
2022-09-03T01:22:51.954Z,0.00
2022-09-03T01:23:52.043Z,0.00
2022-09-03T01:24:52.180Z,0.00
2022-09-03T01:25:52.393Z,0.00
2022-09-03T01:26:52.481Z,0.00
2022-09-03T01:27:52.632Z,0.00
2022-09-03T01:28:52.781Z,0.00
2022-09-03T01:29:52.913Z,0.00
2022-09-03T01:30:53.021Z,0.00
2022-09-03T01:31:53.147Z,0.00
2022-09-03T01:32:53.311Z,0.00
2022-09-03T01:33:53.393Z,0.00
2022-09-03T01:34:53.531Z,0.00
2022-09-03T01:35:53.660Z,0.00
2022-09-03T01:36:53.802Z,0.00
2022-09-03T01:37:54.083Z,0.00
2022-09-03T01:38:54.061Z,0.00
2022-09-03T01:39:54.265Z,0.00
2022-09-03T01:40:54.282Z,0.00
2022-09-03T01:41:54.383Z,0.00
2022-09-03T01:42:54.515Z,0.00
2022-09-03T01:43:54.665Z,0.00
2022-09-03T01:44:54.767Z,0.00
2022-09-03T01:45:54.962Z,0.00
2022-09-03T01:46:55.058Z,0.00
2022-09-03T01:47:55.191Z,0.00
2022-09-03T01:48:55.330Z,0.00
2022-09-03T01:49:55.522Z,0.00
2022-09-03T01:50:55.672Z,0.00
2022-09-03T01:51:57.121Z,0.00
2022-09-03T01:52:55.953Z,0.00
2022-09-03T01:53:56.136Z,0.00
2022-09-03T01:54:57.032Z,0.00
2022-09-03T01:55:57.132Z,0.00
2022-09-03T01:56:56.599Z,0.00
2022-09-03T01:57:56.692Z,0.00
2022-09-03T01:58:56.880Z,0.00
2022-09-03T01:59:56.982Z,0.00
2022-09-03T02:00:57.139Z,0.00
2022-09-03T02:01:57.353Z,0.00
2022-09-03T02:02:57.466Z,0.00
2022-09-03T02:03:57.562Z,0.00
2022-09-03T02:04:57.719Z,0.00
2022-09-03T02:05:57.879Z,0.00
2022-09-03T02:06:58.106Z,0.00
2022-09-03T02:07:58.113Z,0.00
2022-09-03T02:08:58.239Z,0.00
2022-09-03T02:09:58.349Z,0.00
2022-09-03T02:10:58.481Z,0.00
2022-09-03T02:11:58.552Z,0.00
2022-09-03T02:12:58.713Z,0.00
2022-09-03T02:13:58.828Z,0.00
2022-09-03T02:14:58.990Z,0.00
2022-09-03T02:15:59.183Z,0.00
2022-09-03T02:16:59.290Z,0.00
2022-09-03T02:17:59.433Z,0.00
2022-09-03T02:19:00.471Z,0.00
2022-09-03T02:19:59.619Z,0.00
2022-09-03T02:20:59.758Z,0.00
2022-09-03T02:21:59.845Z,0.00
2022-09-03T02:23:00.009Z,0.00
2022-09-03T02:24:00.097Z,0.00
2022-09-03T02:25:00.249Z,0.00
2022-09-03T02:26:00.310Z,0.00
2022-09-03T02:27:00.457Z,0.00
2022-09-03T02:28:00.566Z,0.00
2022-09-03T02:29:00.691Z,0.00
2022-09-03T02:30:00.831Z,0.00
2022-09-03T02:31:01.015Z,0.00
2022-09-03T02:32:01.083Z,0.00
2022-09-03T02:33:01.252Z,0.00
2022-09-03T02:34:01.319Z,0.00
2022-09-03T02:35:01.458Z,0.00
2022-09-03T02:36:01.650Z,0.00
2022-09-03T02:37:01.799Z,0.00
2022-09-03T02:38:01.910Z,0.00
2022-09-03T02:39:02.060Z,0.00
2022-09-03T02:40:02.344Z,0.00
2022-09-03T02:41:02.441Z,0.00
2022-09-03T02:42:02.529Z,0.00
2022-09-03T02:43:02.708Z,0.00
2022-09-03T02:44:02.780Z,0.00
2022-09-03T02:45:02.919Z,0.00
2022-09-03T02:46:03.128Z,0.00
2022-09-03T02:47:03.216Z,0.00
2022-09-03T02:48:03.349Z,0.00
2022-09-03T02:49:03.476Z,0.00
2022-09-03T02:50:03.578Z,0.00
2022-09-03T02:51:13.779Z,0.00
2022-09-03T02:52:04.839Z,0.00
2022-09-03T02:53:04.031Z,0.00
2022-09-03T02:54:04.115Z,0.00
2022-09-03T02:55:04.257Z,0.00
2022-09-03T02:56:04.405Z,0.00
2022-09-03T02:57:04.503Z,0.00
2022-09-03T02:58:04.631Z,0.00
2022-09-03T02:59:04.838Z,0.00
2022-09-03T03:00:04.897Z,0.00
2022-09-03T03:01:05.042Z,0.00
2022-09-03T03:02:05.159Z,0.00
2022-09-03T03:03:05.245Z,0.00
2022-09-03T03:04:05.385Z,0.00
2022-09-03T03:05:05.520Z,0.00
2022-09-03T03:06:05.676Z,0.00
2022-09-03T03:07:05.779Z,0.00
2022-09-03T03:08:05.906Z,0.00
2022-09-03T03:09:06.052Z,0.00
2022-09-03T03:10:06.189Z,0.00
2022-09-03T03:11:06.326Z,0.00
2022-09-03T03:12:06.442Z,0.00
2022-09-03T03:13:06.548Z,0.00
2022-09-03T03:14:06.717Z,0.00
2022-09-03T03:15:06.885Z,0.00
2022-09-03T03:16:07.071Z,0.00
2022-09-03T03:17:07.252Z,0.00
2022-09-03T03:18:07.361Z,0.00
2022-09-03T03:19:07.515Z,0.00
2022-09-03T03:20:07.676Z,0.00
2022-09-03T03:21:07.777Z,0.00
2022-09-03T03:22:07.909Z,0.00
2022-09-03T03:23:08.035Z,0.00
2022-09-03T03:24:08.177Z,0.00
2022-09-03T03:25:08.316Z,0.00
2022-09-03T03:26:08.489Z,0.00
2022-09-03T03:27:08.567Z,0.00
2022-09-03T03:28:08.707Z,0.00
2022-09-03T03:29:08.856Z,0.00
2022-09-03T03:30:08.997Z,0.00
2022-09-03T03:31:09.261Z,0.00
2022-09-03T03:32:09.266Z,0.00
2022-09-03T03:33:09.346Z,0.00
2022-09-03T03:34:09.497Z,0.00
2022-09-03T03:35:09.646Z,0.00
2022-09-03T03:36:09.786Z,0.00
2022-09-03T03:37:09.945Z,0.00
2022-09-03T03:38:10.077Z,0.00
2022-09-03T03:39:11.221Z,0.00
2022-09-03T03:40:10.339Z,0.00
2022-09-03T03:41:10.453Z,0.00
2022-09-03T03:42:10.578Z,0.00
2022-09-03T03:43:10.715Z,0.00
2022-09-03T03:44:10.867Z,0.00
2022-09-03T03:45:10.946Z,0.00
2022-09-03T03:46:11.121Z,0.00
2022-09-03T03:47:11.218Z,0.00
2022-09-03T03:48:11.325Z,0.00
2022-09-03T03:49:11.413Z,0.00
2022-09-03T03:50:11.553Z,0.00
2022-09-03T03:51:11.696Z,0.00
2022-09-03T03:52:11.847Z,0.00
2022-09-03T03:53:11.926Z,0.00
2022-09-03T03:54:12.063Z,0.00
2022-09-03T03:55:13.175Z,0.00
2022-09-03T03:56:12.323Z,0.00
2022-09-03T03:57:12.436Z,0.00
2022-09-03T03:58:12.576Z,0.00
2022-09-03T03:59:12.635Z,0.00
2022-09-03T04:00:12.763Z,0.00
2022-09-03T04:01:12.950Z,0.00
2022-09-03T04:02:13.093Z,0.00
2022-09-03T04:03:13.195Z,0.00
2022-09-03T04:04:13.304Z,0.00
2022-09-03T04:05:13.405Z,0.00
2022-09-03T04:06:13.606Z,0.00
2022-09-03T04:07:13.663Z,0.00
2022-09-03T04:08:13.803Z,0.00
2022-09-03T04:09:13.937Z,0.00
2022-09-03T04:10:14.081Z,0.00
2022-09-03T04:11:14.203Z,0.00
2022-09-03T04:12:14.337Z,0.00
2022-09-03T04:13:14.485Z,0.00
2022-09-03T04:14:14.585Z,4.00
2022-09-03T04:15:14.724Z,0.00
2022-09-03T04:16:14.886Z,0.00
2022-09-03T04:17:14.966Z,4.00
2022-09-03T04:18:15.195Z,0.00
2022-09-03T04:19:15.212Z,4.00
2022-09-03T04:20:15.373Z,4.00
2022-09-03T04:21:15.546Z,8.00
2022-09-03T04:22:15.707Z,8.00
2022-09-03T04:23:15.840Z,8.00
2022-09-03T04:24:15.972Z,8.00
2022-09-03T04:25:16.126Z,12.00
2022-09-03T04:26:16.234Z,12.00
2022-09-03T04:27:16.374Z,12.00
2022-09-03T04:28:16.461Z,16.00
2022-09-03T04:29:16.573Z,20.00
2022-09-03T04:30:16.673Z,28.00
2022-09-03T04:31:16.826Z,28.00
2022-09-03T04:32:16.967Z,36.00
2022-09-03T04:33:17.102Z,44.00
2022-09-03T04:34:17.234Z,48.00
2022-09-03T04:35:17.355Z,56.00
2022-09-03T04:36:17.495Z,68.00
2022-09-03T04:37:17.634Z,76.00
2022-09-03T04:38:19.804Z,88.00
2022-09-03T04:39:17.973Z,96.00
2022-09-03T04:40:18.005Z,112.00
2022-09-03T04:41:18.150Z,128.00
2022-09-03T04:42:18.290Z,140.00
2022-09-03T04:43:18.432Z,160.00
2022-09-03T04:44:18.604Z,176.00
2022-09-03T04:45:18.731Z,196.00
2022-09-03T04:46:18.868Z,216.00
2022-09-03T04:47:18.925Z,240.00
2022-09-03T04:48:19.114Z,260.00
2022-09-03T04:49:19.143Z,284.00
2022-09-03T04:50:19.292Z,308.00
2022-09-03T04:51:19.393Z,336.00
2022-09-03T04:52:19.555Z,360.00
2022-09-03T04:53:19.652Z,384.00
2022-09-03T04:54:19.771Z,416.00
2022-09-03T04:55:19.873Z,440.00
2022-09-03T04:56:20.053Z,468.00
2022-09-03T04:57:20.140Z,500.00
2022-09-03T04:58:20.260Z,528.00
2022-09-03T04:59:20.402Z,560.00
2022-09-03T05:00:21.234Z,588.00
2022-09-03T05:01:20.656Z,620.00
2022-09-03T05:02:20.819Z,648.00
2022-09-03T05:03:20.862Z,684.00
2022-09-03T05:04:20.981Z,716.00
2022-09-03T05:05:21.082Z,744.00
2022-09-03T05:06:21.231Z,772.00
2022-09-03T05:07:21.342Z,804.00
2022-09-03T05:08:21.456Z,836.00
2022-09-03T05:09:21.561Z,864.00
2022-09-03T05:10:21.662Z,892.00
2022-09-03T05:11:21.815Z,928.00
2022-09-03T05:12:21.952Z,960.00
2022-09-03T05:13:22.021Z,992.00
2022-09-03T05:14:22.171Z,1020.00
2022-09-03T05:15:22.291Z,1056.00
2022-09-03T05:16:22.467Z,1100.00
2022-09-03T05:17:22.532Z,1136.00
2022-09-03T05:18:22.680Z,1168.00
2022-09-03T05:19:22.833Z,1200.00
2022-09-03T05:20:22.943Z,1232.00
2022-09-03T05:21:23.042Z,1272.00
2022-09-03T05:22:23.190Z,1304.00
2022-09-03T05:23:23.290Z,1348.00
2022-09-03T05:24:23.492Z,1384.00
2022-09-03T05:25:23.573Z,1416.00
2022-09-03T05:26:23.711Z,1448.00
2022-09-03T05:27:23.852Z,1484.00
2022-09-03T05:28:24.142Z,1516.00
2022-09-03T05:29:24.144Z,1544.00
2022-09-03T05:30:24.250Z,1572.00
2022-09-03T05:31:24.450Z,1600.00
2022-09-03T05:32:24.512Z,1624.00
2022-09-03T05:33:24.613Z,1644.00
2022-09-03T05:34:24.773Z,1664.00
2022-09-03T05:35:27.112Z,1684.00
2022-09-03T05:36:26.000Z,1704.00
2022-09-03T05:37:25.901Z,1724.00
2022-09-03T05:38:26.052Z,1740.00
2022-09-03T05:39:25.468Z,1764.00
2022-09-03T05:40:25.560Z,1796.00
2022-09-03T05:41:25.705Z,1820.00
2022-09-03T05:42:25.849Z,1840.00
2022-09-03T05:43:25.981Z,1856.00
2022-09-03T05:44:26.070Z,1880.00
2022-09-03T05:45:26.255Z,1892.00
2022-09-03T05:46:26.350Z,1932.00
2022-09-03T05:47:26.440Z,1984.00
2022-09-03T05:48:27.320Z,2008.00
2022-09-03T05:49:26.709Z,2040.00
2022-09-03T05:50:27.558Z,2060.00
2022-09-03T05:51:26.949Z,2080.00
2022-09-03T05:52:27.049Z,2088.00
2022-09-03T05:53:27.163Z,2108.00
2022-09-03T05:54:27.326Z,2140.00
2022-09-03T05:55:27.429Z,2148.00
2022-09-03T05:56:27.581Z,2168.00
2022-09-03T05:57:29.630Z,2196.00
2022-09-03T05:58:28.191Z,2224.00
2022-09-03T05:59:28.462Z,2248.00
2022-09-03T06:00:28.067Z,2268.00
2022-09-03T06:01:28.132Z,2280.00
2022-09-03T06:02:28.425Z,2304.00
2022-09-03T06:03:28.609Z,2336.00
2022-09-03T06:04:28.590Z,2348.00
2022-09-03T06:05:28.665Z,2352.00
2022-09-03T06:06:28.830Z,2372.00
2022-09-03T06:07:28.928Z,2388.00
2022-09-03T06:08:29.040Z,2404.00
2022-09-03T06:09:29.150Z,2412.00
2022-09-03T06:10:34.519Z,2428.00
2022-09-03T06:11:30.419Z,2428.00
2022-09-03T06:12:29.561Z,2452.00
2022-09-03T06:13:29.667Z,2456.00
2022-09-03T06:14:29.838Z,2468.00
2022-09-03T06:15:29.928Z,2472.00
2022-09-03T06:16:32.184Z,2484.00
2022-09-03T06:17:30.159Z,2500.00
2022-09-03T06:18:30.320Z,2508.00
2022-09-03T06:19:30.456Z,2504.00
2022-09-03T06:20:35.014Z,2524.00
2022-09-03T06:21:31.668Z,2536.00
2022-09-03T06:22:30.808Z,2548.00
2022-09-03T06:23:30.922Z,2560.00
2022-09-03T06:24:31.070Z,2576.00
2022-09-03T06:25:31.178Z,2588.00
2022-09-03T06:26:31.289Z,2592.00
2022-09-03T06:27:31.419Z,2596.00
2022-09-03T06:28:31.506Z,2612.00
2022-09-03T06:29:31.649Z,2636.00
2022-09-03T06:30:31.794Z,2656.00
2022-09-03T06:31:31.947Z,2680.00
2022-09-03T06:32:32.020Z,2692.00
2022-09-03T06:33:32.097Z,2708.00
2022-09-03T06:34:32.265Z,2724.00
2022-09-03T06:35:35.687Z,2728.00
2022-09-03T06:36:33.491Z,2756.00
2022-09-03T06:37:32.628Z,2764.00
2022-09-03T06:38:32.783Z,2784.00
2022-09-03T06:39:32.940Z,2804.00
2022-09-03T06:40:33.018Z,2824.00
2022-09-03T06:41:33.144Z,2836.00
2022-09-03T06:42:33.227Z,2836.00
2022-09-03T06:43:33.348Z,2856.00
2022-09-03T06:44:33.469Z,2868.00
2022-09-03T06:45:33.589Z,2876.00
2022-09-03T06:46:33.757Z,2892.00
2022-09-03T06:47:33.829Z,2904.00
2022-09-03T06:48:34.012Z,2908.00
2022-09-03T06:49:34.109Z,2924.00
2022-09-03T06:50:34.843Z,2940.00
2022-09-03T06:51:34.369Z,2948.00
2022-09-03T06:52:34.547Z,2956.00
2022-09-03T06:53:34.642Z,2968.00
2022-09-03T06:54:34.777Z,2984.00
2022-09-03T06:55:34.847Z,2992.00
2022-09-03T06:56:39.623Z,3000.00
2022-09-03T06:57:36.129Z,3008.00
2022-09-03T06:58:35.280Z,3024.00
2022-09-03T06:59:35.411Z,3024.00
2022-09-03T07:00:35.555Z,3036.00
2022-09-03T07:01:35.811Z,3056.00
2022-09-03T07:02:35.771Z,3060.00
2022-09-03T07:03:35.876Z,3068.00
2022-09-03T07:04:36.009Z,3076.00
2022-09-03T07:05:36.097Z,3088.00
2022-09-03T07:06:36.250Z,3104.00
2022-09-03T07:07:36.329Z,3112.00
2022-09-03T07:08:36.487Z,3116.00
2022-09-03T07:09:36.610Z,3128.00
2022-09-03T07:10:36.717Z,3128.00
2022-09-03T07:11:36.899Z,3144.00
2022-09-03T07:12:37.006Z,3152.00
2022-09-03T07:13:37.125Z,3164.00
2022-09-03T07:14:37.210Z,3188.00
2022-09-03T07:15:37.367Z,3196.00
2022-09-03T07:16:37.522Z,3216.00
2022-09-03T07:17:37.585Z,3232.00
2022-09-03T07:18:37.692Z,3244.00
2022-09-03T07:19:37.839Z,3264.00
2022-09-03T07:20:37.947Z,3284.00
2022-09-03T07:21:38.088Z,3296.00
2022-09-03T07:22:38.159Z,3308.00
2022-09-03T07:23:38.308Z,3312.00
2022-09-03T07:24:38.427Z,3340.00
2022-09-03T07:25:38.535Z,3356.00
2022-09-03T07:26:38.674Z,3368.00
2022-09-03T07:27:38.788Z,3376.00
2022-09-03T07:28:38.888Z,3400.00
2022-09-03T07:29:38.978Z,3424.00
2022-09-03T07:30:39.081Z,3424.00
2022-09-03T07:31:39.287Z,3452.00
2022-09-03T07:32:39.336Z,3472.00
2022-09-03T07:33:39.499Z,3480.00
2022-09-03T07:34:39.575Z,3508.00
2022-09-03T07:35:39.736Z,3512.00
2022-09-03T07:36:39.864Z,3536.00
2022-09-03T07:37:39.975Z,3556.00
2022-09-03T07:38:40.076Z,3588.00
2022-09-03T07:39:40.278Z,3600.00
2022-09-03T07:40:40.347Z,3616.00
2022-09-03T07:41:40.499Z,3636.00
2022-09-03T07:42:40.615Z,3652.00
2022-09-03T07:43:40.714Z,3668.00
2022-09-03T07:44:40.807Z,3688.00
2022-09-03T07:45:40.979Z,3704.00
2022-09-03T07:46:41.101Z,3720.00
2022-09-03T07:47:41.219Z,3756.00
2022-09-03T07:48:41.306Z,3768.00
2022-09-03T07:49:41.460Z,3792.00
2022-09-03T07:50:41.572Z,3820.00
2022-09-03T07:51:41.718Z,3848.00
2022-09-03T07:52:41.817Z,3864.00
2022-09-03T07:53:41.969Z,3904.00
2022-09-03T07:54:42.057Z,3936.00
2022-09-03T07:55:42.195Z,3956.00
2022-09-03T07:56:42.287Z,3992.00
2022-09-03T07:57:42.420Z,4008.00
2022-09-03T07:58:42.508Z,4028.00
2022-09-03T07:59:42.656Z,4088.00
2022-09-03T08:00:42.797Z,4272.00
2022-09-03T08:01:42.909Z,4624.00
2022-09-03T08:02:46.099Z,4964.00
2022-09-03T08:03:43.256Z,5172.00
2022-09-03T08:04:43.277Z,5324.00
2022-09-03T08:05:43.369Z,5404.00
2022-09-03T08:06:43.489Z,5428.00
2022-09-03T08:07:43.616Z,5416.00
2022-09-03T08:08:43.716Z,5388.00
2022-09-03T08:09:43.839Z,5384.00
2022-09-03T08:10:43.975Z,5448.00
2022-09-03T08:11:44.076Z,5432.00
2022-09-03T08:12:44.186Z,5128.00
2022-09-03T08:13:44.288Z,5436.00
2022-09-03T08:14:44.377Z,5436.00
2022-09-03T08:15:44.600Z,5408.00
2022-09-03T08:16:44.710Z,5460.00
2022-09-03T08:17:44.837Z,5512.00
2022-09-03T08:18:44.927Z,5536.00
2022-09-03T08:19:45.070Z,5564.00
2022-09-03T08:20:45.159Z,5552.00
2022-09-03T08:21:45.346Z,5476.00
2022-09-03T08:22:45.489Z,5464.00
2022-09-03T08:23:45.580Z,5448.00
2022-09-03T08:24:45.677Z,5452.00
2022-09-03T08:25:45.893Z,5444.00
2022-09-03T08:26:51.305Z,5468.00
2022-09-03T08:27:47.058Z,5476.00
2022-09-03T08:28:46.159Z,5492.00
2022-09-03T08:29:46.301Z,5492.00
2022-09-03T08:30:48.337Z,5520.00
2022-09-03T08:31:46.589Z,5492.00
2022-09-03T08:32:46.707Z,5468.00
2022-09-03T08:33:46.745Z,5412.00
2022-09-03T08:34:46.877Z,5408.00
2022-09-03T08:35:46.996Z,5392.00
2022-09-03T08:36:47.244Z,5368.00
2022-09-03T08:37:47.210Z,5372.00
2022-09-03T08:38:47.330Z,5424.00
2022-09-03T08:39:47.521Z,5432.00
2022-09-03T08:40:47.580Z,5464.00
2022-09-03T08:41:47.691Z,5476.00
2022-09-03T08:42:47.842Z,5524.00
2022-09-03T08:43:47.936Z,5540.00
2022-09-03T08:44:48.046Z,5592.00
2022-09-03T08:45:48.152Z,5608.00
2022-09-03T08:46:48.364Z,5664.00
2022-09-03T08:47:48.398Z,5712.00
2022-09-03T08:48:48.499Z,5764.00
2022-09-03T08:49:48.640Z,5796.00
2022-09-03T08:50:48.768Z,5828.00
2022-09-03T08:51:49.015Z,5856.00
2022-09-03T08:52:49.039Z,5876.00
2022-09-03T08:53:49.117Z,5924.00
2022-09-03T08:54:49.242Z,5984.00
2022-09-03T08:55:49.320Z,5992.00
2022-09-03T08:56:49.440Z,6056.00
2022-09-03T08:57:49.593Z,6136.00
2022-09-03T08:58:49.698Z,6172.00
2022-09-03T08:59:49.862Z,6244.00
2022-09-03T09:00:49.942Z,6284.00
2022-09-03T09:01:50.174Z,6340.00
2022-09-03T09:02:50.288Z,6420.00
2022-09-03T09:03:50.312Z,6476.00
2022-09-03T09:04:50.472Z,6544.00
2022-09-03T09:05:50.562Z,6616.00
2022-09-03T09:06:50.702Z,6712.00
2022-09-03T09:07:50.840Z,6804.00
2022-09-03T09:08:50.992Z,7044.00
2022-09-03T09:09:51.116Z,7848.00
2022-09-03T09:10:51.211Z,9184.00
2022-09-03T09:11:51.309Z,8980.00
2022-09-03T09:12:51.441Z,8960.00
2022-09-03T09:13:51.582Z,9708.00
2022-09-03T09:14:51.722Z,9776.00
2022-09-03T09:15:51.945Z,10060.00
2022-09-03T09:16:52.010Z,9372.00
2022-09-03T09:17:52.164Z,9332.00
2022-09-03T09:18:52.264Z,9968.00
2022-09-03T09:19:52.401Z,10212.00
2022-09-03T09:20:52.541Z,9768.00
2022-09-03T09:21:52.683Z,9628.00
2022-09-03T09:22:52.823Z,10040.00
2022-09-03T09:23:53.033Z,10896.00
2022-09-03T09:24:53.123Z,10824.00
2022-09-03T09:25:53.252Z,10632.00
2022-09-03T09:26:53.336Z,10788.00
2022-09-03T09:27:53.491Z,11084.00
2022-09-03T09:28:53.595Z,12140.00
2022-09-03T09:29:53.740Z,13184.00
2022-09-03T09:30:53.903Z,12300.00
2022-09-03T09:31:53.971Z,12544.00
2022-09-03T09:32:54.103Z,13412.00
2022-09-03T09:33:54.257Z,12212.00
2022-09-03T09:34:54.364Z,12384.00
2022-09-03T09:35:54.632Z,12736.00
2022-09-03T09:36:54.604Z,13328.00
2022-09-03T09:37:54.765Z,13728.00
2022-09-03T09:38:54.925Z,13980.00
2022-09-03T09:39:55.103Z,15680.00
2022-09-03T09:40:55.844Z,15392.00
2022-09-03T09:41:55.266Z,16288.00
2022-09-03T09:42:55.395Z,23616.00
2022-09-03T09:43:55.484Z,29472.00
2022-09-03T09:44:55.625Z,31232.00
2022-09-03T09:45:55.796Z,27232.00
2022-09-03T09:46:55.934Z,26016.00
2022-09-03T09:47:56.040Z,27456.00
2022-09-03T09:48:56.132Z,32064.00
2022-09-03T09:49:56.278Z,30336.00
2022-09-03T09:50:56.465Z,25248.00
2022-09-03T09:51:56.559Z,24960.00
2022-09-03T09:52:59.166Z,24480.00
2022-09-03T09:53:56.785Z,25792.00
2022-09-03T09:54:56.897Z,26400.00
2022-09-03T09:55:57.026Z,25536.00
2022-09-03T09:56:57.216Z,22560.00
2022-09-03T09:57:57.241Z,21952.00
2022-09-03T09:58:57.345Z,21920.00
2022-09-03T09:59:57.528Z,24128.00
2022-09-03T10:00:57.648Z,25280.00
2022-09-03T10:01:57.792Z,22656.00
2022-09-03T10:02:58.019Z,23264.00
2022-09-03T10:03:58.005Z,22368.00
2022-09-03T10:04:58.107Z,25472.00
2022-09-03T10:05:58.198Z,28192.00
2022-09-03T10:06:58.386Z,25760.00
2022-09-03T10:07:58.480Z,25728.00
2022-09-03T10:08:58.588Z,25888.00
2022-09-03T10:09:58.696Z,26496.00
2022-09-03T10:10:58.818Z,28416.00
2022-09-03T10:11:59.008Z,28480.00
2022-09-03T10:12:59.117Z,28320.00
2022-09-03T10:13:59.227Z,29568.00
2022-09-03T10:14:59.339Z,29504.00
2022-09-03T10:15:59.471Z,28128.00
2022-09-03T10:16:59.600Z,27616.00
2022-09-03T10:17:59.707Z,28352.00
2022-09-03T10:18:59.787Z,29984.00
2022-09-03T10:19:59.969Z,32704.00
2022-09-03T10:21:00.081Z,33696.00
2022-09-03T10:22:00.245Z,33792.00
2022-09-03T10:23:00.329Z,33280.00
2022-09-03T10:24:03.716Z,33344.00
2022-09-03T10:25:01.564Z,34144.00
2022-09-03T10:26:00.665Z,37536.00
2022-09-03T10:27:00.815Z,37728.00
2022-09-03T10:28:00.899Z,37696.00
2022-09-03T10:29:01.041Z,35936.00
2022-09-03T10:30:01.161Z,36512.00
2022-09-03T10:31:01.336Z,40640.00
2022-09-03T10:32:01.420Z,47648.00
2022-09-03T10:33:01.548Z,47488.00
2022-09-03T10:34:01.651Z,42560.00
2022-09-03T10:35:01.762Z,39584.00
2022-09-03T10:36:01.933Z,44128.00
2022-09-03T10:37:02.030Z,43520.00
2022-09-03T10:38:02.150Z,48992.00
2022-09-03T10:39:02.270Z,45152.00
2022-09-03T10:40:02.450Z,47776.00
2022-09-03T10:41:02.501Z,51456.00
2022-09-03T10:42:02.721Z,56704.00
2022-09-03T10:43:02.820Z,57152.00
2022-09-03T10:44:02.909Z,54848.00
2022-09-03T10:45:03.029Z,53312.00
2022-09-03T10:46:03.286Z,51232.00
2022-09-03T10:47:03.274Z,53728.00
2022-09-03T10:48:03.381Z,55648.00
2022-09-03T10:49:03.481Z,55936.00
2022-09-03T10:50:03.611Z,64448.00
2022-09-03T10:51:03.722Z,60224.00
2022-09-03T10:52:03.873Z,53120.00
2022-09-03T10:53:04.202Z,50048.00
2022-09-03T10:54:04.127Z,45632.00
2022-09-03T10:55:04.251Z,51520.00
2022-09-03T10:56:04.403Z,54464.00
2022-09-03T10:57:04.503Z,52416.00
2022-09-03T10:58:04.630Z,51008.00
2022-09-03T10:59:04.744Z,57344.00
2022-09-03T11:00:04.911Z,54496.00
2022-09-03T11:01:05.050Z,47392.00
2022-09-03T11:02:05.191Z,50752.00
2022-09-03T11:03:05.277Z,48576.00
2022-09-03T11:04:05.372Z,51744.00
2022-09-03T11:05:05.473Z,54080.00
2022-09-03T11:06:07.543Z,54048.00
2022-09-03T11:07:05.712Z,57664.00
2022-09-03T11:08:05.852Z,61376.00
2022-09-03T11:09:06.822Z,62176.00
2022-09-03T11:10:06.072Z,59712.00
2022-09-03T11:11:06.186Z,60256.00
2022-09-03T11:12:06.314Z,60832.00
2022-09-03T11:13:06.446Z,63008.00
2022-09-03T11:14:06.552Z,61664.00
2022-09-03T11:15:06.653Z,59840.00
2022-09-03T11:16:06.826Z,57376.00
2022-09-03T11:17:08.845Z,63328.00
2022-09-03T11:18:07.044Z,62240.00
2022-09-03T11:19:07.158Z,54368.00
2022-09-03T11:20:07.294Z,57536.00
2022-09-03T11:21:12.011Z,61920.00
2022-09-03T11:22:07.553Z,37728.00
2022-09-03T11:23:07.685Z,50496.00
2022-09-03T11:24:07.794Z,61120.00
2022-09-03T11:25:07.902Z,62080.00
2022-09-03T11:26:08.013Z,58656.00
2022-09-03T11:27:08.105Z,60800.00
2022-09-03T11:28:08.266Z,67392.00
2022-09-03T11:29:08.394Z,67840.00
2022-09-03T11:30:08.542Z,64704.00
2022-09-03T11:31:08.680Z,60512.00
2022-09-03T11:32:08.774Z,55648.00
2022-09-03T11:33:08.915Z,57376.00
2022-09-03T11:34:09.035Z,62144.00
2022-09-03T11:35:09.155Z,67136.00
2022-09-03T11:36:09.283Z,69248.00
2022-09-03T11:37:09.396Z,63968.00
2022-09-03T11:38:09.508Z,61632.00
2022-09-03T11:39:09.655Z,65216.00
2022-09-03T11:40:09.756Z,65760.00
2022-09-03T11:41:09.909Z,60320.00
2022-09-03T11:42:10.007Z,58112.00
2022-09-03T11:43:10.134Z,58624.00
2022-09-03T11:44:10.288Z,62656.00
2022-09-03T11:45:10.408Z,67552.00
2022-09-03T11:46:10.572Z,64832.00
2022-09-03T11:47:10.661Z,64032.00
2022-09-03T11:48:10.768Z,64288.00
2022-09-03T11:49:10.888Z,64576.00
2022-09-03T11:50:10.995Z,66144.00
2022-09-03T11:51:11.167Z,66112.00
2022-09-03T11:52:11.276Z,63776.00
2022-09-03T11:53:11.409Z,62688.00
2022-09-03T11:54:11.544Z,61312.00
2022-09-03T11:55:11.664Z,60480.00
2022-09-03T11:56:11.769Z,61088.00
2022-09-03T11:57:11.898Z,61120.00
2022-09-03T11:58:11.986Z,63840.00
2022-09-03T11:59:12.137Z,65472.00
2022-09-03T12:00:14.187Z,66560.00
2022-09-03T12:01:12.368Z,68416.00
2022-09-03T12:02:12.516Z,70784.00
2022-09-03T12:03:12.633Z,70112.00
2022-09-03T12:04:12.751Z,70560.00
2022-09-03T12:05:12.888Z,70816.00
2022-09-03T12:06:13.715Z,72512.00
2022-09-03T12:07:13.150Z,70432.00
2022-09-03T12:08:13.216Z,71584.00
2022-09-03T12:09:13.385Z,70784.00
2022-09-03T12:10:13.498Z,69056.00
2022-09-03T12:11:13.641Z,65376.00
2022-09-03T12:12:13.738Z,64960.00
2022-09-03T12:13:13.837Z,21824.00
2022-09-03T12:14:14.163Z,67584.00
2022-09-03T12:15:21.206Z,72000.00
2022-09-03T12:16:14.263Z,72128.00
2022-09-03T12:17:14.323Z,71008.00
2022-09-03T12:18:14.434Z,71328.00
2022-09-03T12:19:14.553Z,69216.00
2022-09-03T12:20:14.679Z,69440.00
2022-09-03T12:21:14.795Z,71616.00
2022-09-03T12:22:14.906Z,75456.00
2022-09-03T12:23:15.020Z,73632.00
2022-09-03T12:24:15.128Z,38112.00
2022-09-03T12:25:15.289Z,64416.00
2022-09-03T12:26:15.386Z,72224.00
2022-09-03T12:27:15.503Z,75552.00
2022-09-03T12:28:15.655Z,76416.00